createdAt,value
2022-12-08T00:00:36.259Z,78.06
2022-12-08T00:01:39.184Z,77.88
2022-12-08T00:02:44.356Z,77.96
2022-12-08T00:03:47.222Z,77.72
2022-12-08T00:05:07.708Z,77.73
2022-12-08T00:06:50.115Z,77.18
2022-12-08T00:08:10.982Z,77.27
2022-12-08T00:09:39.331Z,77.54
2022-12-08T00:10:49.633Z,77.67
2022-12-08T00:12:13.084Z,77.83
2022-12-08T00:13:15.280Z,78.23
2022-12-08T00:14:17.961Z,78.30
2022-12-08T00:15:20.125Z,78.25
2022-12-08T00:16:22.379Z,78.47
2022-12-08T00:17:24.640Z,78.56
2022-12-08T00:18:27.023Z,78.23
2022-12-08T00:19:30.615Z,78.57
2022-12-08T00:20:32.780Z,78.40
2022-12-08T00:21:35.147Z,78.30
2022-12-08T00:22:37.283Z,78.61
2022-12-08T00:23:39.675Z,78.46
2022-12-08T00:24:44.975Z,78.68
2022-12-08T00:25:47.180Z,78.76
2022-12-08T00:26:50.012Z,78.72
2022-12-08T00:27:52.195Z,78.63
2022-12-08T00:28:54.378Z,78.61
2022-12-08T00:29:56.591Z,78.91
2022-12-08T00:30:58.915Z,78.87
2022-12-08T00:32:01.301Z,78.83
2022-12-08T00:33:03.520Z,78.82
2022-12-08T00:34:06.433Z,78.77
2022-12-08T00:35:08.817Z,78.47
2022-12-08T00:36:13.765Z,78.65
2022-12-08T00:37:16.296Z,78.71
2022-12-08T00:38:18.503Z,78.80
2022-12-08T00:39:20.689Z,78.80
2022-12-08T00:40:22.934Z,78.51
2022-12-08T00:41:45.302Z,78.35
2022-12-08T00:42:47.449Z,78.45
2022-12-08T00:43:49.872Z,78.33
2022-12-08T00:44:52.094Z,78.42
2022-12-08T00:45:54.528Z,78.68
2022-12-08T00:46:56.951Z,78.93
2022-12-08T00:47:59.156Z,78.76
2022-12-08T00:49:01.584Z,78.90
2022-12-08T00:50:07.353Z,78.95
2022-12-08T00:51:09.589Z,79.36
2022-12-08T00:52:13.114Z,79.39
2022-12-08T00:53:15.284Z,79.26
2022-12-08T00:54:18.267Z,79.11
2022-12-08T00:55:20.419Z,79.21
2022-12-08T00:56:23.129Z,79.52
2022-12-08T00:57:25.503Z,79.21
2022-12-08T00:58:27.814Z,78.92
2022-12-08T00:59:30.014Z,78.82
2022-12-08T01:00:32.201Z,78.51
2022-12-08T01:01:35.289Z,78.22
2022-12-08T01:02:37.942Z,78.28
2022-12-08T01:03:41.149Z,78.55
2022-12-08T01:04:43.633Z,79.09
2022-12-08T01:05:45.973Z,79.76
2022-12-08T01:06:48.553Z,79.87
2022-12-08T01:07:51.229Z,80.11
2022-12-08T01:08:53.646Z,80.10
2022-12-08T01:09:57.675Z,80.28
2022-12-08T01:11:05.070Z,80.39
2022-12-08T01:12:07.799Z,80.20
2022-12-08T01:13:09.992Z,80.34
2022-12-08T01:14:13.077Z,79.84
2022-12-08T01:15:15.532Z,79.48
2022-12-08T01:16:27.252Z,79.88
2022-12-08T01:17:29.481Z,80.21
2022-12-08T01:18:32.445Z,80.42
2022-12-08T01:19:35.070Z,80.74
2022-12-08T01:20:37.289Z,80.45
2022-12-08T01:21:41.039Z,80.38
2022-12-08T01:22:43.395Z,80.25
2022-12-08T01:23:45.981Z,80.08
2022-12-08T01:24:48.518Z,80.41
2022-12-08T01:25:51.816Z,80.04
2022-12-08T01:26:55.817Z,80.79
2022-12-08T01:27:58.143Z,80.99
2022-12-08T01:29:00.325Z,81.00
2022-12-08T01:30:03.837Z,80.97
2022-12-08T01:31:11.614Z,81.29
2022-12-08T01:32:13.843Z,81.01
2022-12-08T01:33:16.176Z,81.08
2022-12-08T01:34:18.328Z,80.79
2022-12-08T01:35:20.698Z,80.58
2022-12-08T01:36:25.416Z,80.97
2022-12-08T01:37:27.772Z,80.84
2022-12-08T01:38:30.874Z,80.75
2022-12-08T01:39:33.046Z,80.83
2022-12-08T01:40:35.395Z,80.69
2022-12-08T01:41:39.820Z,80.94
2022-12-08T01:42:41.996Z,81.06
2022-12-08T01:43:56.004Z,80.83
2022-12-08T01:45:02.542Z,80.88
2022-12-08T01:46:05.621Z,80.49
2022-12-08T01:47:08.535Z,80.50
2022-12-08T01:48:31.794Z,80.55
2022-12-08T01:49:36.381Z,80.37
2022-12-08T01:50:42.216Z,80.40
2022-12-08T01:51:59.103Z,80.25
2022-12-08T01:53:14.593Z,80.22
2022-12-08T01:54:17.146Z,80.40
2022-12-08T01:55:26.171Z,80.28
2022-12-08T01:56:35.769Z,80.38
2022-12-08T01:57:43.240Z,80.48
2022-12-08T01:58:49.855Z,80.65
2022-12-08T02:00:04.999Z,81.17
2022-12-08T02:01:10.119Z,81.10
2022-12-08T02:02:12.761Z,80.99
2022-12-08T02:03:22.669Z,81.07
2022-12-08T02:04:24.884Z,81.06
2022-12-08T02:05:33.353Z,81.07
2022-12-08T02:06:39.966Z,80.92
2022-12-08T02:07:43.958Z,80.90
2022-12-08T02:08:47.711Z,80.99
2022-12-08T02:09:51.527Z,81.32
2022-12-08T02:10:53.740Z,81.23
2022-12-08T02:11:58.166Z,81.29
2022-12-08T02:13:01.291Z,81.07
2022-12-08T02:14:06.425Z,80.76
2022-12-08T02:15:09.179Z,80.85
2022-12-08T02:16:29.476Z,80.79
2022-12-08T02:17:48.819Z,81.28
2022-12-08T02:19:30.341Z,81.30
2022-12-08T02:20:56.499Z,81.17
2022-12-08T02:22:01.156Z,80.98
2022-12-08T02:23:03.267Z,81.20
2022-12-08T02:24:19.600Z,81.36
2022-12-08T02:25:56.019Z,81.74
2022-12-08T02:27:16.905Z,82.10
2022-12-08T02:28:52.277Z,82.15
2022-12-08T02:30:33.492Z,82.19
2022-12-08T02:32:22.097Z,82.25
2022-12-08T02:33:53.210Z,82.20
2022-12-08T02:35:13.626Z,81.97
2022-12-08T02:36:50.993Z,81.94
2022-12-08T02:38:05.035Z,82.10
2022-12-08T02:39:35.080Z,81.92
2022-12-08T02:40:52.608Z,81.71
2022-12-08T02:42:12.648Z,81.80
2022-12-08T02:43:23.469Z,81.60
2022-12-08T02:44:30.888Z,81.71
2022-12-08T02:45:41.280Z,81.77
2022-12-08T02:46:51.746Z,81.97
2022-12-08T02:47:54.169Z,82.02
2022-12-08T02:48:57.824Z,82.01
2022-12-08T02:50:00.189Z,82.04
2022-12-08T02:51:02.580Z,82.05
2022-12-08T02:52:07.097Z,82.00
2022-12-08T02:54:11.586Z,81.87
2022-12-08T02:55:32.717Z,81.82
2022-12-08T02:56:56.586Z,81.93
2022-12-08T02:58:17.939Z,81.72
2022-12-08T02:59:38.919Z,81.99
2022-12-08T03:01:05.407Z,82.11
2022-12-08T03:02:23.672Z,82.30
2022-12-08T03:03:38.700Z,82.42
2022-12-08T03:04:51.016Z,82.39
2022-12-08T03:06:30.110Z,82.45
2022-12-08T03:07:42.639Z,82.86
2022-12-08T03:09:17.736Z,82.25
2022-12-08T03:10:37.715Z,82.28
2022-12-08T03:11:58.284Z,82.46
2022-12-08T03:13:07.931Z,82.55
2022-12-08T03:14:16.386Z,82.54
2022-12-08T03:15:20.518Z,82.07
2022-12-08T03:16:26.312Z,82.20
2022-12-08T03:17:31.447Z,82.05
2022-12-08T03:18:39.477Z,81.70
2022-12-08T03:19:44.097Z,81.58
2022-12-08T03:20:47.816Z,81.73
2022-12-08T03:22:00.446Z,81.81
2022-12-08T03:23:09.011Z,81.88
2022-12-08T03:24:13.061Z,81.77
2022-12-08T03:25:20.883Z,81.91
2022-12-08T03:26:34.368Z,82.29
2022-12-08T03:27:36.838Z,82.35
2022-12-08T03:28:39.824Z,82.34
2022-12-08T03:29:42.042Z,82.42
2022-12-08T03:30:50.133Z,82.11
2022-12-08T03:31:56.429Z,82.20
2022-12-08T03:33:11.915Z,82.17
2022-12-08T03:34:15.337Z,81.97
2022-12-08T03:35:23.487Z,81.79
2022-12-08T03:36:26.207Z,81.73
2022-12-08T03:37:28.993Z,82.08
2022-12-08T03:38:45.749Z,82.43
2022-12-08T03:39:48.125Z,82.86
2022-12-08T03:41:10.396Z,82.74
2022-12-08T03:42:12.725Z,82.89
2022-12-08T03:43:14.885Z,83.01
2022-12-08T03:44:17.115Z,83.02
2022-12-08T03:45:19.270Z,82.89
2022-12-08T03:47:24.823Z,83.11
2022-12-08T03:48:27.141Z,83.06
2022-12-08T03:49:29.487Z,83.02
2022-12-08T03:50:31.688Z,83.21
2022-12-08T03:51:34.058Z,82.77
2022-12-08T03:52:36.257Z,82.85
2022-12-08T03:53:38.885Z,82.90
2022-12-08T03:54:41.243Z,83.06
2022-12-08T03:55:43.525Z,82.77
2022-12-08T03:56:45.908Z,82.49
2022-12-08T03:57:48.110Z,82.24
2022-12-08T03:58:50.697Z,82.12
2022-12-08T03:59:53.081Z,81.99
2022-12-08T04:00:55.275Z,81.90
2022-12-08T04:01:57.473Z,81.91
2022-12-08T04:02:59.941Z,81.49
2022-12-08T04:04:02.318Z,81.49
2022-12-08T04:05:04.809Z,81.28
2022-12-08T04:06:10.833Z,81.45
2022-12-08T04:07:13.007Z,81.59
2022-12-08T04:08:15.560Z,81.29
2022-12-08T04:09:18.038Z,81.07
2022-12-08T04:10:20.404Z,80.89
2022-12-08T04:11:22.728Z,80.88
2022-12-08T04:12:24.914Z,80.80
2022-12-08T04:13:27.499Z,80.77
2022-12-08T04:14:29.887Z,80.98
2022-12-08T04:15:32.082Z,81.13
2022-12-08T04:16:34.486Z,81.13
2022-12-08T04:17:36.757Z,80.71
2022-12-08T04:18:38.939Z,80.74
2022-12-08T04:19:41.393Z,80.97
2022-12-08T04:20:44.972Z,81.13
2022-12-08T04:21:47.326Z,80.64
2022-12-08T04:22:49.503Z,80.89
2022-12-08T04:23:56.111Z,81.27
2022-12-08T04:25:01.905Z,81.50
2022-12-08T04:26:04.628Z,81.92
2022-12-08T04:27:06.841Z,82.21
2022-12-08T04:28:09.065Z,82.23
2022-12-08T04:29:11.371Z,82.17
2022-12-08T04:30:13.842Z,82.08
2022-12-08T04:31:16.422Z,82.07
2022-12-08T04:32:18.817Z,81.87
2022-12-08T04:33:21.303Z,81.80
2022-12-08T04:34:23.494Z,82.11
2022-12-08T04:35:25.742Z,82.20
2022-12-08T04:36:27.949Z,82.12
2022-12-08T04:37:30.148Z,82.04
2022-12-08T04:38:33.493Z,81.99
2022-12-08T04:39:35.881Z,82.10
2022-12-08T04:40:38.191Z,82.29
2022-12-08T04:41:40.570Z,82.47
2022-12-08T04:42:43.012Z,82.23
2022-12-08T04:43:45.374Z,82.24
2022-12-08T04:44:47.572Z,82.35
2022-12-08T04:45:49.737Z,82.21
2022-12-08T04:46:52.391Z,82.42
2022-12-08T04:47:54.586Z,82.43
2022-12-08T04:48:56.751Z,82.35
2022-12-08T04:49:59.551Z,81.93
2022-12-08T04:51:01.737Z,82.35
2022-12-08T04:52:04.175Z,82.36
2022-12-08T04:53:06.482Z,82.35
2022-12-08T04:54:08.675Z,81.99
2022-12-08T04:55:11.339Z,81.47
2022-12-08T04:56:15.748Z,81.67
2022-12-08T04:57:17.987Z,82.07
2022-12-08T04:58:20.568Z,82.17
2022-12-08T04:59:22.942Z,82.06
2022-12-08T05:00:25.322Z,81.93
2022-12-08T05:01:27.533Z,81.88
2022-12-08T05:02:30.231Z,81.79
2022-12-08T05:03:32.622Z,81.81
2022-12-08T05:04:34.817Z,82.00
2022-12-08T05:05:37.221Z,82.08
2022-12-08T05:06:39.403Z,82.15
2022-12-08T05:07:41.627Z,82.21
2022-12-08T05:08:44.149Z,82.40
2022-12-08T05:09:46.512Z,82.62
2022-12-08T05:10:48.687Z,82.87
2022-12-08T05:11:51.179Z,82.60
2022-12-08T05:12:53.367Z,82.51
2022-12-08T05:13:55.739Z,82.47
2022-12-08T05:14:58.115Z,82.49
2022-12-08T05:16:05.166Z,82.34
2022-12-08T05:17:09.689Z,82.46
2022-12-08T05:18:12.165Z,82.13
2022-12-08T05:19:15.243Z,81.85
2022-12-08T05:20:17.858Z,81.66
2022-12-08T05:21:20.071Z,81.79
2022-12-08T05:22:22.335Z,81.93
2022-12-08T05:23:26.250Z,82.13
2022-12-08T05:24:28.479Z,82.02
2022-12-08T05:25:30.825Z,81.87
2022-12-08T05:26:33.443Z,81.65
2022-12-08T05:27:36.173Z,81.49
2022-12-08T05:28:43.017Z,81.41
2022-12-08T05:29:48.108Z,81.55
2022-12-08T05:30:50.516Z,81.59
2022-12-08T05:31:53.001Z,81.84
2022-12-08T05:32:55.278Z,81.57
2022-12-08T05:34:02.763Z,81.52
2022-12-08T05:35:06.087Z,81.57
2022-12-08T05:36:10.073Z,81.40
2022-12-08T05:37:12.380Z,81.47
2022-12-08T05:38:14.588Z,80.95
2022-12-08T05:39:16.754Z,81.13
2022-12-08T05:40:19.213Z,81.16
2022-12-08T05:41:21.598Z,81.16
2022-12-08T05:42:25.122Z,81.40
2022-12-08T05:43:27.707Z,81.69
2022-12-08T05:44:30.086Z,81.91
2022-12-08T05:45:32.535Z,81.76
2022-12-08T05:46:35.603Z,81.40
2022-12-08T05:47:37.961Z,81.48
2022-12-08T05:48:40.746Z,80.80
2022-12-08T05:49:43.216Z,80.66
2022-12-08T05:50:48.962Z,81.00
2022-12-08T05:51:51.361Z,80.75
2022-12-08T05:52:53.735Z,80.56
2022-12-08T05:53:56.769Z,80.85
2022-12-08T05:54:59.006Z,81.01
2022-12-08T05:56:01.188Z,81.32
2022-12-08T05:57:03.434Z,81.08
2022-12-08T05:58:08.115Z,81.02
2022-12-08T05:59:10.506Z,80.88
2022-12-08T06:00:13.445Z,80.85
2022-12-08T06:01:29.538Z,80.78
2022-12-08T06:02:32.091Z,80.72
2022-12-08T06:03:34.846Z,80.90
2022-12-08T06:04:37.160Z,80.61
2022-12-08T06:05:40.708Z,80.55
2022-12-08T06:06:43.055Z,80.70
2022-12-08T06:07:45.416Z,81.00
2022-12-08T06:08:48.067Z,80.85
2022-12-08T06:09:50.250Z,80.59
2022-12-08T06:10:52.701Z,80.15
2022-12-08T06:11:54.958Z,80.35
2022-12-08T06:12:57.161Z,80.01
2022-12-08T06:14:00.253Z,80.35
2022-12-08T06:15:02.764Z,80.14
2022-12-08T06:16:07.898Z,80.46
2022-12-08T06:17:10.192Z,80.36
2022-12-08T06:18:12.441Z,80.56
2022-12-08T06:19:15.989Z,80.62
2022-12-08T06:20:18.321Z,80.62
2022-12-08T06:21:21.028Z,80.53
2022-12-08T06:22:23.393Z,80.39
2022-12-08T06:23:25.566Z,80.55
2022-12-08T06:24:28.214Z,80.56
2022-12-08T06:25:30.602Z,80.46
2022-12-08T06:26:32.793Z,80.04
2022-12-08T06:27:34.969Z,80.29
2022-12-08T06:28:38.045Z,80.46
2022-12-08T06:29:40.484Z,80.56
2022-12-08T06:30:42.868Z,80.40
2022-12-08T06:31:45.121Z,80.36
2022-12-08T06:32:48.526Z,80.25
2022-12-08T06:33:51.230Z,80.30
2022-12-08T06:34:53.414Z,80.33
2022-12-08T06:35:55.591Z,80.47
2022-12-08T06:36:57.924Z,80.57
2022-12-08T06:38:00.107Z,80.44
2022-12-08T06:39:02.268Z,80.27
2022-12-08T06:40:05.387Z,80.26
2022-12-08T06:41:08.247Z,80.39
2022-12-08T06:42:28.963Z,80.51
2022-12-08T06:43:31.275Z,80.56
2022-12-08T06:44:33.524Z,80.84
2022-12-08T06:45:35.974Z,80.85
2022-12-08T06:46:38.184Z,80.79
2022-12-08T06:47:40.644Z,80.98
2022-12-08T06:48:43.332Z,80.78
2022-12-08T06:50:04.561Z,80.74
2022-12-08T06:51:11.439Z,80.38
2022-12-08T06:52:13.676Z,80.56
2022-12-08T06:53:16.389Z,80.74
2022-12-08T06:54:18.680Z,80.86
2022-12-08T06:55:50.614Z,80.83
2022-12-08T06:56:43.509Z,80.87
2022-12-08T06:57:45.893Z,80.41
2022-12-08T06:58:52.498Z,80.31
2022-12-08T06:59:55.510Z,80.38
2022-12-08T07:00:57.775Z,80.34
2022-12-08T07:02:00.203Z,80.54
2022-12-08T07:03:02.711Z,80.66
2022-12-08T07:04:05.003Z,80.79
2022-12-08T07:05:07.189Z,80.80
2022-12-08T07:06:16.025Z,80.84
2022-12-08T07:07:18.356Z,80.85
2022-12-08T07:08:21.109Z,80.65
2022-12-08T07:09:23.391Z,80.78
2022-12-08T07:11:28.131Z,80.24
2022-12-08T07:12:30.524Z,80.47
2022-12-08T07:13:32.890Z,80.39
2022-12-08T07:14:35.101Z,80.69
2022-12-08T07:15:37.688Z,80.51
2022-12-08T07:16:39.948Z,80.49
2022-12-08T07:17:42.358Z,80.74
2022-12-08T07:18:44.712Z,80.70
2022-12-08T07:19:46.877Z,80.84
2022-12-08T07:20:49.273Z,80.79
2022-12-08T07:21:51.433Z,80.74
2022-12-08T07:22:53.954Z,80.80
2022-12-08T07:23:58.001Z,81.43
2022-12-08T07:25:00.367Z,81.54
2022-12-08T07:26:04.617Z,81.19
2022-12-08T07:27:07.034Z,81.20
2022-12-08T07:28:11.102Z,81.38
2022-12-08T07:29:13.836Z,81.18
2022-12-08T07:30:16.351Z,81.47
2022-12-08T07:31:24.566Z,81.94
2022-12-08T07:32:26.939Z,82.11
2022-12-08T07:33:29.257Z,81.90
2022-12-08T07:34:31.871Z,81.66
2022-12-08T07:35:35.186Z,81.63
2022-12-08T07:36:37.856Z,81.76
2022-12-08T07:37:40.328Z,81.53
2022-12-08T07:38:43.202Z,81.23
2022-12-08T07:39:45.558Z,80.89
2022-12-08T07:40:48.001Z,80.46
2022-12-08T07:41:50.635Z,80.52
2022-12-08T07:42:52.922Z,80.63
2022-12-08T07:43:56.314Z,81.20
2022-12-08T07:44:58.523Z,81.15
2022-12-08T07:46:00.766Z,80.97
2022-12-08T07:47:03.082Z,81.04
2022-12-08T07:48:05.656Z,80.73
2022-12-08T07:49:08.038Z,80.99
2022-12-08T07:50:10.318Z,81.08
2022-12-08T07:51:14.320Z,81.02
2022-12-08T07:52:16.645Z,80.92
2022-12-08T07:53:18.814Z,81.05
2022-12-08T07:54:21.006Z,80.90
2022-12-08T07:55:23.512Z,80.89
2022-12-08T07:56:25.969Z,80.66
2022-12-08T07:57:28.163Z,80.65
2022-12-08T07:58:30.609Z,80.92
2022-12-08T07:59:33.138Z,80.75
2022-12-08T08:00:35.687Z,80.65
2022-12-08T08:01:38.308Z,80.56
2022-12-08T08:02:42.326Z,80.30
2022-12-08T08:03:44.569Z,80.15
2022-12-08T08:04:50.701Z,80.20
2022-12-08T08:05:53.525Z,80.25
2022-12-08T08:06:56.054Z,80.08
2022-12-08T08:07:58.429Z,80.00
2022-12-08T08:09:00.853Z,80.11
2022-12-08T08:10:03.765Z,79.84
2022-12-08T08:11:15.746Z,79.33
2022-12-08T08:12:32.764Z,79.14
2022-12-08T08:13:35.502Z,79.13
2022-12-08T08:14:38.167Z,79.19
2022-12-08T08:15:40.666Z,79.18
2022-12-08T08:16:46.834Z,79.13
2022-12-08T08:17:51.748Z,79.09
2022-12-08T08:18:54.517Z,79.24
2022-12-08T08:19:57.337Z,78.86
2022-12-08T08:21:06.739Z,79.20
2022-12-08T08:22:22.169Z,79.32
2022-12-08T08:23:27.902Z,79.21
2022-12-08T08:24:30.114Z,79.61
2022-12-08T08:25:32.561Z,79.56
2022-12-08T08:26:36.956Z,79.01
2022-12-08T08:27:39.831Z,78.63
2022-12-08T08:28:43.905Z,78.32
2022-12-08T08:29:46.195Z,78.21
2022-12-08T08:30:48.446Z,78.04
2022-12-08T08:31:50.718Z,77.98
2022-12-08T08:32:52.946Z,78.05
2022-12-08T08:33:59.201Z,77.54
2022-12-08T08:35:02.125Z,77.45
2022-12-08T08:36:11.292Z,77.47
2022-12-08T08:37:16.460Z,77.13
2022-12-08T08:38:18.746Z,77.02
2022-12-08T08:39:20.950Z,77.02
2022-12-08T08:40:23.731Z,76.90
2022-12-08T08:41:26.163Z,76.55
2022-12-08T08:42:28.425Z,76.22
2022-12-08T08:43:37.574Z,75.89
2022-12-08T08:44:40.743Z,75.94
2022-12-08T08:45:46.522Z,76.34
2022-12-08T08:46:49.053Z,76.18
2022-12-08T08:47:52.364Z,76.00
2022-12-08T08:48:54.588Z,76.33
2022-12-08T08:49:56.770Z,76.12
2022-12-08T08:50:59.714Z,75.89
2022-12-08T08:52:03.042Z,75.98
2022-12-08T08:53:05.283Z,75.95
2022-12-08T08:54:07.693Z,75.48
2022-12-08T08:55:10.395Z,75.64
2022-12-08T08:56:15.121Z,76.08
2022-12-08T08:57:23.647Z,75.94
2022-12-08T08:58:29.702Z,75.81
2022-12-08T08:59:34.875Z,76.04
2022-12-08T09:00:37.270Z,76.06
2022-12-08T09:01:39.824Z,76.05
2022-12-08T09:02:42.069Z,75.80
2022-12-08T09:03:45.434Z,75.60
2022-12-08T09:04:47.696Z,75.74
2022-12-08T09:05:50.754Z,75.29
2022-12-08T09:06:53.462Z,75.27
2022-12-08T09:07:55.797Z,75.02
2022-12-08T09:08:58.833Z,75.43
2022-12-08T09:10:02.013Z,75.03
2022-12-08T09:11:04.868Z,74.84
2022-12-08T09:12:08.033Z,74.88
2022-12-08T09:13:10.281Z,74.95
2022-12-08T09:14:14.768Z,74.63
2022-12-08T09:15:17.474Z,74.75
2022-12-08T09:16:20.391Z,74.74
2022-12-08T09:17:22.824Z,74.70
2022-12-08T09:18:27.329Z,74.56
2022-12-08T09:19:31.002Z,74.35
2022-12-08T09:20:35.376Z,74.24
2022-12-08T09:21:42.626Z,74.57
2022-12-08T09:22:45.078Z,74.60
2022-12-08T09:23:55.802Z,74.55
2022-12-08T09:25:00.069Z,74.65
2022-12-08T09:26:07.225Z,74.26
2022-12-08T09:27:09.550Z,74.30
2022-12-08T09:28:13.026Z,74.36
2022-12-08T09:29:15.676Z,74.55
2022-12-08T09:30:17.916Z,74.69
2022-12-08T09:31:24.447Z,74.26
2022-12-08T09:32:26.696Z,74.34
2022-12-08T09:33:30.749Z,74.19
2022-12-08T09:34:33.150Z,74.10
2022-12-08T09:35:35.517Z,74.04
2022-12-08T09:36:37.894Z,73.73
2022-12-08T09:37:42.689Z,73.40
2022-12-08T09:38:49.169Z,73.54
2022-12-08T09:39:53.669Z,73.19
2022-12-08T09:40:56.183Z,73.21
2022-12-08T09:42:07.419Z,72.98
2022-12-08T09:43:23.294Z,73.49
2022-12-08T09:44:55.505Z,74.42
2022-12-08T09:45:58.694Z,74.19
2022-12-08T09:47:05.163Z,74.13
2022-12-08T09:48:11.930Z,74.10
2022-12-08T09:49:21.911Z,73.80
2022-12-08T09:50:45.881Z,73.99
2022-12-08T09:51:48.451Z,74.43
2022-12-08T09:53:02.542Z,74.68
2022-12-08T09:54:24.119Z,74.57
2022-12-08T09:55:55.596Z,74.65
2022-12-08T09:57:06.370Z,74.69
2022-12-08T09:58:20.790Z,74.74
2022-12-08T09:59:35.419Z,74.64
2022-12-08T10:00:37.859Z,74.42
2022-12-08T10:01:43.574Z,74.21
2022-12-08T10:02:47.666Z,74.40
2022-12-08T10:03:50.349Z,74.65
2022-12-08T10:04:56.052Z,74.83
2022-12-08T10:06:09.683Z,74.73
2022-12-08T10:07:27.258Z,74.79
2022-12-08T10:08:55.936Z,74.84
2022-12-08T10:10:04.315Z,74.38
2022-12-08T10:11:29.512Z,74.28
2022-12-08T10:12:48.600Z,74.04
2022-12-08T10:14:13.112Z,73.92
2022-12-08T10:15:53.294Z,73.81
2022-12-08T10:17:04.033Z,73.51
2022-12-08T10:18:16.896Z,73.50
2022-12-08T10:19:25.236Z,73.44
2022-12-08T10:20:37.551Z,73.72
2022-12-08T10:21:40.812Z,73.81
2022-12-08T10:22:45.085Z,74.11
2022-12-08T10:23:51.354Z,73.74
2022-12-08T10:24:58.325Z,73.89
2022-12-08T10:26:20.320Z,74.19
2022-12-08T10:27:25.324Z,73.85
2022-12-08T10:28:27.637Z,74.10
2022-12-08T10:29:30.408Z,74.26
2022-12-08T10:30:32.862Z,74.12
2022-12-08T10:31:35.565Z,73.70
2022-12-08T10:32:38.239Z,73.35
2022-12-08T10:33:46.976Z,73.08
2022-12-08T10:35:04.412Z,73.19
2022-12-08T10:36:07.054Z,73.12
2022-12-08T10:37:10.366Z,73.18
2022-12-08T10:38:32.218Z,73.04
2022-12-08T10:39:45.683Z,72.97
2022-12-08T10:40:50.201Z,72.92
2022-12-08T10:41:52.605Z,72.75
2022-12-08T10:42:59.318Z,72.81
2022-12-08T10:44:02.229Z,72.85
2022-12-08T10:45:16.047Z,72.31
2022-12-08T10:46:19.539Z,71.92
2022-12-08T10:47:23.752Z,72.49
2022-12-08T10:48:31.510Z,72.81
2022-12-08T10:49:38.657Z,72.57
2022-12-08T10:50:46.557Z,72.78
2022-12-08T10:51:48.786Z,72.87
2022-12-08T10:53:11.801Z,72.54
2022-12-08T10:54:29.195Z,72.33
2022-12-08T10:55:46.619Z,72.38
2022-12-08T10:56:55.490Z,71.97
2022-12-08T10:57:57.901Z,71.83
2022-12-08T10:59:15.672Z,71.45
2022-12-08T11:00:23.214Z,71.52
2022-12-08T11:01:32.832Z,71.53
2022-12-08T11:02:59.992Z,71.62
2022-12-08T11:04:05.405Z,71.82
2022-12-08T11:05:22.782Z,71.77
2022-12-08T11:06:34.268Z,71.78
2022-12-08T11:07:36.654Z,71.34
2022-12-08T11:08:57.523Z,70.91
2022-12-08T11:10:00.948Z,71.12
2022-12-08T11:11:03.139Z,71.16
2022-12-08T11:12:20.132Z,70.95
2022-12-08T11:13:26.133Z,70.84
2022-12-08T11:14:57.230Z,70.28
2022-12-08T11:15:59.431Z,70.48
2022-12-08T11:17:10.625Z,70.53
2022-12-08T11:18:26.986Z,70.38
2022-12-08T11:19:29.437Z,70.00
2022-12-08T11:20:39.969Z,70.14
2022-12-08T11:21:42.878Z,69.84
2022-12-08T11:22:53.231Z,69.14
2022-12-08T11:23:55.407Z,69.10
2022-12-08T11:25:15.874Z,68.93
2022-12-08T11:26:33.709Z,68.51
2022-12-08T11:27:39.256Z,68.32
2022-12-08T11:28:41.706Z,68.48
2022-12-08T11:29:43.961Z,68.21
2022-12-08T11:30:54.642Z,68.46
2022-12-08T11:32:04.406Z,68.11
2022-12-08T11:33:17.415Z,67.63
2022-12-08T11:34:28.479Z,68.09
2022-12-08T11:35:35.279Z,67.98
2022-12-08T11:36:38.528Z,67.73
2022-12-08T11:37:44.376Z,67.94
2022-12-08T11:38:48.582Z,67.86
2022-12-08T11:39:55.351Z,67.50
2022-12-08T11:41:08.387Z,67.80
2022-12-08T11:42:19.015Z,67.49
2022-12-08T11:43:33.395Z,67.19
2022-12-08T11:44:57.631Z,67.15
2022-12-08T11:46:03.085Z,67.17
2022-12-08T11:47:09.349Z,67.10
2022-12-08T11:48:32.885Z,67.40
2022-12-08T11:49:41.950Z,67.07
2022-12-08T11:50:56.527Z,67.33
2022-12-08T11:52:29.709Z,67.60
2022-12-08T11:53:41.799Z,67.25
2022-12-08T11:55:33.757Z,67.04
2022-12-08T11:56:53.051Z,66.79
2022-12-08T11:57:59.115Z,66.35
2022-12-08T11:59:10.464Z,65.22
2022-12-08T12:00:17.469Z,65.08
2022-12-08T12:01:25.331Z,65.28
2022-12-08T12:02:31.096Z,66.00
2022-12-08T12:03:44.981Z,66.25
2022-12-08T12:04:52.934Z,66.02
2022-12-08T12:08:09.886Z,66.05
2022-12-08T12:09:19.616Z,66.22
2022-12-08T12:10:49.229Z,65.90
2022-12-08T12:12:28.987Z,65.49
2022-12-08T12:13:46.293Z,64.71
2022-12-08T12:15:16.587Z,64.63
2022-12-08T12:16:46.410Z,64.87
2022-12-08T12:17:57.340Z,64.95
2022-12-08T12:19:01.538Z,65.23
2022-12-08T12:20:16.372Z,65.38
2022-12-08T12:21:42.015Z,65.09
2022-12-08T12:22:51.693Z,65.14
2022-12-08T12:24:26.027Z,65.37
2022-12-08T12:25:33.463Z,64.73
2022-12-08T12:26:39.086Z,64.73
2022-12-08T12:27:41.719Z,65.02
2022-12-08T12:28:50.297Z,65.41
2022-12-08T12:30:00.248Z,65.29
2022-12-08T12:31:10.114Z,64.48
2022-12-08T12:32:15.511Z,64.95
2022-12-08T12:33:21.728Z,64.53
2022-12-08T12:34:39.118Z,64.71
2022-12-08T12:35:43.791Z,64.62
2022-12-08T12:37:06.110Z,64.05
2022-12-08T12:38:41.133Z,64.52
2022-12-08T12:39:52.313Z,64.81
2022-12-08T12:41:03.728Z,64.51
2022-12-08T12:42:28.756Z,64.52
2022-12-08T12:43:36.685Z,64.68
2022-12-08T12:44:40.316Z,65.11
2022-12-08T12:45:45.850Z,65.27
2022-12-08T12:46:50.916Z,65.05
2022-12-08T12:47:57.047Z,65.05
2022-12-08T12:49:36.144Z,64.81
2022-12-08T12:50:49.549Z,64.70
2022-12-08T12:51:55.660Z,63.93
2022-12-08T12:53:00.917Z,63.83
2022-12-08T12:54:27.256Z,64.15
2022-12-08T12:55:52.964Z,63.51
2022-12-08T12:57:14.539Z,63.79
2022-12-08T12:58:36.940Z,63.45
2022-12-08T12:59:55.139Z,63.84
2022-12-08T13:01:10.487Z,64.20
2022-12-08T13:02:30.750Z,64.11
2022-12-08T13:03:33.690Z,64.63
2022-12-08T13:04:37.947Z,64.69
2022-12-08T13:05:51.966Z,63.73
2022-12-08T13:06:56.624Z,64.09
2022-12-08T13:08:20.711Z,64.40
2022-12-08T13:09:32.526Z,63.67
2022-12-08T13:10:39.433Z,63.65
2022-12-08T13:11:52.028Z,63.71
2022-12-08T13:13:17.812Z,62.80
2022-12-08T13:14:32.909Z,63.13
2022-12-08T13:15:41.409Z,63.17
2022-12-08T13:16:43.720Z,63.31
2022-12-08T13:17:49.176Z,63.43
2022-12-08T13:18:57.958Z,63.64
2022-12-08T13:20:03.855Z,63.12
2022-12-08T13:21:09.032Z,63.30
2022-12-08T13:22:50.439Z,63.41
2022-12-08T13:24:01.686Z,63.69
2022-12-08T13:25:45.368Z,63.26
2022-12-08T13:26:49.375Z,63.70
2022-12-08T13:27:53.947Z,63.21
2022-12-08T13:28:58.874Z,63.10
2022-12-08T13:30:38.765Z,62.74
2022-12-08T13:31:57.475Z,63.71
2022-12-08T13:33:18.670Z,63.53
2022-12-08T13:34:48.785Z,63.81
2022-12-08T13:36:00.383Z,64.01
2022-12-08T13:37:08.595Z,64.19
2022-12-08T13:38:19.321Z,64.07
2022-12-08T13:39:28.061Z,62.77
2022-12-08T13:40:45.615Z,62.60
2022-12-08T13:42:02.104Z,62.34
2022-12-08T13:43:18.551Z,62.89
2022-12-08T13:46:57.568Z,63.54
2022-12-08T13:47:34.679Z,63.29
2022-12-08T13:53:34.908Z,63.32
2022-12-08T13:57:30.699Z,63.56
2022-12-08T13:58:36.736Z,63.04
2022-12-08T13:59:44.580Z,63.29
2022-12-08T14:01:06.319Z,62.42
2022-12-08T14:02:32.976Z,62.16
2022-12-08T14:04:20.372Z,62.77
2022-12-08T14:05:18.633Z,63.31
2022-12-08T14:06:42.520Z,63.12
2022-12-08T14:07:46.763Z,62.43
2022-12-08T14:09:05.014Z,62.00
2022-12-08T14:10:23.605Z,62.12
2022-12-08T14:11:34.420Z,62.38
2022-12-08T14:12:36.858Z,62.37
2022-12-08T14:13:38.977Z,62.90
2022-12-08T14:15:02.659Z,63.26
2022-12-08T14:16:06.372Z,63.63
2022-12-08T14:17:14.745Z,64.15
2022-12-08T14:18:31.522Z,64.89
2022-12-08T14:19:35.326Z,64.68
2022-12-08T14:21:12.042Z,64.82
2022-12-08T14:22:02.707Z,64.83
2022-12-08T14:23:08.267Z,64.45
2022-12-08T14:24:11.314Z,64.73
2022-12-08T14:25:15.957Z,65.33
2022-12-08T14:26:18.591Z,65.04
2022-12-08T14:27:26.964Z,65.37
2022-12-08T14:28:30.276Z,64.95
2022-12-08T14:29:47.385Z,65.49
2022-12-08T14:30:51.059Z,65.10
2022-12-08T14:31:53.983Z,65.23
2022-12-08T14:32:58.859Z,65.12
2022-12-08T14:34:01.144Z,65.15
2022-12-08T14:35:09.260Z,65.23
2022-12-08T14:36:16.004Z,65.90
2022-12-08T14:37:18.363Z,65.92
2022-12-08T14:38:23.103Z,66.23
2022-12-08T14:39:25.568Z,65.76
2022-12-08T14:40:39.008Z,65.70
2022-12-08T14:41:41.324Z,65.98
2022-12-08T14:42:48.107Z,66.06